sensor_id;sensor_type;location;lat;lon;timestamp;P1;durP1;ratioP1;P2;durP2;ratioP2
37205;SDS011;23099;42.636;23.198;2023-06-10T00:00:02;7.95;;;3.20;;
37205;SDS011;23099;42.636;23.198;2023-06-10T00:02:31;9.18;;;3.53;;
37205;SDS011;23099;42.636;23.198;2023-06-10T00:04:57;7.68;;;3.47;;
37205;SDS011;23099;42.636;23.198;2023-06-10T00:07:24;8.27;;;3.28;;
37205;SDS011;23099;42.636;23.198;2023-06-10T00:09:51;11.82;;;3.70;;
37205;SDS011;23099;42.636;23.198;2023-06-10T00:12:17;7.20;;;3.60;;
37205;SDS011;23099;42.636;23.198;2023-06-10T00:14:45;7.40;;;3.65;;
37205;SDS011;23099;42.636;23.198;2023-06-10T00:19:41;7.15;;;3.05;;
37205;SDS011;23099;42.636;23.198;2023-06-10T00:22:08;8.32;;;3.17;;
37205;SDS011;23099;42.636;23.198;2023-06-10T00:24:35;9.07;;;2.92;;
37205;SDS011;23099;42.636;23.198;2023-06-10T00:27:02;8.05;;;3.70;;
37205;SDS011;23099;42.636;23.198;2023-06-10T00:29:30;8.52;;;3.88;;
37205;SDS011;23099;42.636;23.198;2023-06-10T00:31:57;10.00;;;3.83;;
37205;SDS011;23099;42.636;23.198;2023-06-10T00:34:25;7.93;;;4.10;;
37205;SDS011;23099;42.636;23.198;2023-06-10T00:36:51;8.63;;;3.72;;
37205;SDS011;23099;42.636;23.198;2023-06-10T00:39:18;9.48;;;4.05;;
37205;SDS011;23099;42.636;23.198;2023-06-10T00:41:45;9.05;;;4.28;;
37205;SDS011;23099;42.636;23.198;2023-06-10T00:44:11;6.72;;;3.88;;
37205;SDS011;23099;42.636;23.198;2023-06-10T00:46:38;8.55;;;3.85;;
37205;SDS011;23099;42.636;23.198;2023-06-10T00:49:05;9.85;;;4.25;;
37205;SDS011;23099;42.636;23.198;2023-06-10T00:51:33;9.60;;;4.05;;
37205;SDS011;23099;42.636;23.198;2023-06-10T00:54:01;9.80;;;4.30;;
37205;SDS011;23099;42.636;23.198;2023-06-10T00:56:29;8.77;;;4.95;;
37205;SDS011;23099;42.636;23.198;2023-06-10T00:58:56;7.78;;;4.22;;
37205;SDS011;23099;42.636;23.198;2023-06-10T01:01:23;10.32;;;4.55;;
37205;SDS011;23099;42.636;23.198;2023-06-10T01:03:50;9.50;;;5.13;;
37205;SDS011;23099;42.636;23.198;2023-06-10T01:06:21;12.38;;;4.38;;
37205;SDS011;23099;42.636;23.198;2023-06-10T01:08:59;9.02;;;4.50;;
37205;SDS011;23099;42.636;23.198;2023-06-10T01:11:34;9.30;;;4.82;;
37205;SDS011;23099;42.636;23.198;2023-06-10T01:14:05;8.10;;;4.63;;
37205;SDS011;23099;42.636;23.198;2023-06-10T01:19:01;10.68;;;4.63;;
37205;SDS011;23099;42.636;23.198;2023-06-10T01:21:29;11.25;;;5.70;;
37205;SDS011;23099;42.636;23.198;2023-06-10T01:26:24;10.02;;;5.30;;
37205;SDS011;23099;42.636;23.198;2023-06-10T01:28:57;13.75;;;5.85;;
37205;SDS011;23099;42.636;23.198;2023-06-10T01:31:31;10.32;;;5.93;;
37205;SDS011;23099;42.636;23.198;2023-06-10T01:34:05;9.63;;;5.57;;
37205;SDS011;23099;42.636;23.198;2023-06-10T01:36:41;11.27;;;5.82;;
37205;SDS011;23099;42.636;23.198;2023-06-10T01:39:13;10.43;;;4.88;;
37205;SDS011;23099;42.636;23.198;2023-06-10T01:41:41;13.30;;;4.82;;
37205;SDS011;23099;42.636;23.198;2023-06-10T01:44:08;10.20;;;5.78;;
37205;SDS011;23099;42.636;23.198;2023-06-10T01:46:35;9.90;;;6.00;;
37205;SDS011;23099;42.636;23.198;2023-06-10T01:49:02;9.20;;;5.57;;
37205;SDS011;23099;42.636;23.198;2023-06-10T01:51:29;10.32;;;4.78;;
37205;SDS011;23099;42.636;23.198;2023-06-10T01:53:58;8.33;;;5.17;;
37205;SDS011;23099;42.636;23.198;2023-06-10T01:56:24;12.57;;;5.82;;
37205;SDS011;23099;42.636;23.198;2023-06-10T01:58:51;12.10;;;6.03;;
37205;SDS011;23099;42.636;23.198;2023-06-10T02:01:20;8.45;;;5.22;;
37205;SDS011;23099;42.636;23.198;2023-06-10T02:03:46;10.05;;;5.93;;
37205;SDS011;23099;42.636;23.198;2023-06-10T02:06:13;12.77;;;5.93;;
37205;SDS011;23099;42.636;23.198;2023-06-10T02:08:40;10.82;;;5.43;;
37205;SDS011;23099;42.636;23.198;2023-06-10T02:11:08;10.15;;;5.82;;
37205;SDS011;23099;42.636;23.198;2023-06-10T02:13:35;11.70;;;5.82;;
37205;SDS011;23099;42.636;23.198;2023-06-10T02:16:01;11.45;;;5.55;;
37205;SDS011;23099;42.636;23.198;2023-06-10T02:18:28;13.38;;;5.85;;
37205;SDS011;23099;42.636;23.198;2023-06-10T02:20:55;12.40;;;6.65;;
37205;SDS011;23099;42.636;23.198;2023-06-10T02:23:22;16.60;;;6.25;;
37205;SDS011;23099;42.636;23.198;2023-06-10T02:25:49;15.02;;;6.40;;
37205;SDS011;23099;42.636;23.198;2023-06-10T02:28:17;10.43;;;6.50;;
37205;SDS011;23099;42.636;23.198;2023-06-10T02:30:43;10.32;;;5.03;;
37205;SDS011;23099;42.636;23.198;2023-06-10T02:33:11;10.88;;;5.32;;
37205;SDS011;23099;42.636;23.198;2023-06-10T02:35:39;8.55;;;5.38;;
37205;SDS011;23099;42.636;23.198;2023-06-10T02:38:06;10.32;;;6.07;;
37205;SDS011;23099;42.636;23.198;2023-06-10T02:40:33;10.82;;;6.20;;
37205;SDS011;23099;42.636;23.198;2023-06-10T02:42:59;10.77;;;6.57;;
37205;SDS011;23099;42.636;23.198;2023-06-10T02:45:27;10.27;;;6.03;;
37205;SDS011;23099;42.636;23.198;2023-06-10T02:47:54;11.88;;;6.78;;
37205;SDS011;23099;42.636;23.198;2023-06-10T02:50:21;9.00;;;5.78;;
37205;SDS011;23099;42.636;23.198;2023-06-10T02:52:48;12.00;;;6.47;;
37205;SDS011;23099;42.636;23.198;2023-06-10T02:55:15;9.20;;;5.80;;
37205;SDS011;23099;42.636;23.198;2023-06-10T02:57:41;11.02;;;5.75;;
37205;SDS011;23099;42.636;23.198;2023-06-10T03:00:08;9.10;;;5.25;;
37205;SDS011;23099;42.636;23.198;2023-06-10T03:02:37;12.55;;;6.35;;
37205;SDS011;23099;42.636;23.198;2023-06-10T03:05:05;11.00;;;6.03;;
37205;SDS011;23099;42.636;23.198;2023-06-10T03:07:35;9.02;;;5.78;;
37205;SDS011;23099;42.636;23.198;2023-06-10T03:10:02;11.32;;;5.47;;
37205;SDS011;23099;42.636;23.198;2023-06-10T03:12:29;10.50;;;5.53;;
37205;SDS011;23099;42.636;23.198;2023-06-10T03:14:56;11.15;;;5.55;;
37205;SDS011;23099;42.636;23.198;2023-06-10T03:17:23;11.50;;;6.07;;
37205;SDS011;23099;42.636;23.198;2023-06-10T03:19:51;12.50;;;6.13;;
37205;SDS011;23099;42.636;23.198;2023-06-10T03:22:17;11.05;;;6.13;;
37205;SDS011;23099;42.636;23.198;2023-06-10T03:24:45;11.68;;;6.03;;
37205;SDS011;23099;42.636;23.198;2023-06-10T03:27:15;11.70;;;5.95;;
37205;SDS011;23099;42.636;23.198;2023-06-10T03:29:42;11.53;;;6.03;;
37205;SDS011;23099;42.636;23.198;2023-06-10T03:32:09;13.90;;;7.43;;
37205;SDS011;23099;42.636;23.198;2023-06-10T03:34:36;11.02;;;6.22;;
37205;SDS011;23099;42.636;23.198;2023-06-10T03:37:05;11.88;;;6.50;;
37205;SDS011;23099;42.636;23.198;2023-06-10T03:41:58;15.70;;;7.15;;
37205;SDS011;23099;42.636;23.198;2023-06-10T03:44:25;16.10;;;7.95;;
37205;SDS011;23099;42.636;23.198;2023-06-10T03:46:52;15.27;;;7.40;;
37205;SDS011;23099;42.636;23.198;2023-06-10T03:49:19;15.07;;;7.10;;
37205;SDS011;23099;42.636;23.198;2023-06-10T03:51:46;11.00;;;6.82;;
37205;SDS011;23099;42.636;23.198;2023-06-10T03:54:14;13.75;;;7.53;;
37205;SDS011;23099;42.636;23.198;2023-06-10T03:56:41;16.05;;;7.70;;
37205;SDS011;23099;42.636;23.198;2023-06-10T03:59:08;15.60;;;8.50;;
37205;SDS011;23099;42.636;23.198;2023-06-10T04:01:34;13.15;;;6.82;;
37205;SDS011;23099;42.636;23.198;2023-06-10T04:04:02;16.45;;;8.30;;
37205;SDS011;23099;42.636;23.198;2023-06-10T04:06:29;13.45;;;7.32;;
37205;SDS011;23099;42.636;23.198;2023-06-10T04:08:56;13.13;;;7.27;;
37205;SDS011;23099;42.636;23.198;2023-06-10T04:11:25;13.95;;;7.50;;
37205;SDS011;23099;42.636;23.198;2023-06-10T04:13:51;15.02;;;6.50;;
37205;SDS011;23099;42.636;23.198;2023-06-10T04:16:18;14.45;;;7.10;;
37205;SDS011;23099;42.636;23.198;2023-06-10T04:18:46;12.07;;;6.78;;
37205;SDS011;23099;42.636;23.198;2023-06-10T04:21:12;15.77;;;7.75;;
37205;SDS011;23099;42.636;23.198;2023-06-10T04:23:39;15.70;;;8.00;;
37205;SDS011;23099;42.636;23.198;2023-06-10T04:26:06;15.77;;;7.72;;
37205;SDS011;23099;42.636;23.198;2023-06-10T04:28:35;15.82;;;7.82;;
37205;SDS011;23099;42.636;23.198;2023-06-10T04:31:01;11.63;;;7.25;;
37205;SDS011;23099;42.636;23.198;2023-06-10T04:33:29;12.37;;;7.23;;
37205;SDS011;23099;42.636;23.198;2023-06-10T04:35:56;11.90;;;6.25;;
37205;SDS011;23099;42.636;23.198;2023-06-10T04:38:22;10.18;;;4.90;;
37205;SDS011;23099;42.636;23.198;2023-06-10T04:40:49;11.70;;;5.35;;
37205;SDS011;23099;42.636;23.198;2023-06-10T04:43:16;13.73;;;5.28;;
37205;SDS011;23099;42.636;23.198;2023-06-10T04:45:44;10.40;;;5.15;;
37205;SDS011;23099;42.636;23.198;2023-06-10T04:48:11;9.43;;;5.72;;
37205;SDS011;23099;42.636;23.198;2023-06-10T04:50:38;12.82;;;5.60;;
37205;SDS011;23099;42.636;23.198;2023-06-10T04:53:04;10.95;;;6.05;;
37205;SDS011;23099;42.636;23.198;2023-06-10T04:55:32;11.27;;;6.50;;
37205;SDS011;23099;42.636;23.198;2023-06-10T04:57:59;12.23;;;6.30;;
37205;SDS011;23099;42.636;23.198;2023-06-10T05:00:26;10.93;;;6.32;;
37205;SDS011;23099;42.636;23.198;2023-06-10T05:02:54;10.40;;;6.32;;
37205;SDS011;23099;42.636;23.198;2023-06-10T05:05:21;13.98;;;6.97;;
37205;SDS011;23099;42.636;23.198;2023-06-10T05:07:48;13.38;;;7.15;;
37205;SDS011;23099;42.636;23.198;2023-06-10T05:10:14;11.48;;;7.38;;
37205;SDS011;23099;42.636;23.198;2023-06-10T05:12:41;11.65;;;7.35;;
37205;SDS011;23099;42.636;23.198;2023-06-10T05:15:08;12.63;;;6.93;;
37205;SDS011;23099;42.636;23.198;2023-06-10T05:17:35;13.02;;;7.53;;
37205;SDS011;23099;42.636;23.198;2023-06-10T05:20:04;19.73;;;10.20;;
37205;SDS011;23099;42.636;23.198;2023-06-10T05:22:31;16.85;;;11.48;;
37205;SDS011;23099;42.636;23.198;2023-06-10T05:24:59;15.55;;;11.32;;
37205;SDS011;23099;42.636;23.198;2023-06-10T05:27:26;17.80;;;11.55;;
37205;SDS011;23099;42.636;23.198;2023-06-10T05:29:52;16.95;;;11.35;;
37205;SDS011;23099;42.636;23.198;2023-06-10T05:32:19;16.10;;;10.90;;
37205;SDS011;23099;42.636;23.198;2023-06-10T05:34:46;15.18;;;11.23;;
37205;SDS011;23099;42.636;23.198;2023-06-10T05:37:14;17.75;;;11.02;;
37205;SDS011;23099;42.636;23.198;2023-06-10T05:39:40;14.45;;;11.00;;
37205;SDS011;23099;42.636;23.198;2023-06-10T05:42:07;15.50;;;10.75;;
37205;SDS011;23099;42.636;23.198;2023-06-10T05:44:35;16.98;;;10.55;;
37205;SDS011;23099;42.636;23.198;2023-06-10T05:47:02;18.83;;;12.02;;
37205;SDS011;23099;42.636;23.198;2023-06-10T05:49:29;16.58;;;11.95;;
37205;SDS011;23099;42.636;23.198;2023-06-10T05:51:55;17.50;;;11.75;;
37205;SDS011;23099;42.636;23.198;2023-06-10T05:56:52;16.83;;;11.27;;
37205;SDS011;23099;42.636;23.198;2023-06-10T05:59:18;17.83;;;10.82;;
37205;SDS011;23099;42.636;23.198;2023-06-10T06:01:45;15.70;;;10.13;;
37205;SDS011;23099;42.636;23.198;2023-06-10T06:04:12;13.00;;;8.73;;
37205;SDS011;23099;42.636;23.198;2023-06-10T06:06:38;11.95;;;7.88;;
37205;SDS011;23099;42.636;23.198;2023-06-10T06:09:06;13.43;;;7.88;;
37205;SDS011;23099;42.636;23.198;2023-06-10T06:11:34;12.50;;;7.63;;
37205;SDS011;23099;42.636;23.198;2023-06-10T06:14:01;12.13;;;7.88;;
37205;SDS011;23099;42.636;23.198;2023-06-10T06:16:29;14.18;;;8.00;;
37205;SDS011;23099;42.636;23.198;2023-06-10T06:18:55;12.10;;;7.32;;
37205;SDS011;23099;42.636;23.198;2023-06-10T06:21:22;13.57;;;6.82;;
37205;SDS011;23099;42.636;23.198;2023-06-10T06:23:49;14.48;;;7.50;;
37205;SDS011;23099;42.636;23.198;2023-06-10T06:26:15;13.63;;;7.25;;
37205;SDS011;23099;42.636;23.198;2023-06-10T06:28:43;12.00;;;6.95;;
37205;SDS011;23099;42.636;23.198;2023-06-10T06:31:10;12.20;;;7.57;;
37205;SDS011;23099;42.636;23.198;2023-06-10T06:33:37;15.13;;;8.13;;
37205;SDS011;23099;42.636;23.198;2023-06-10T06:36:04;12.88;;;7.45;;
37205;SDS011;23099;42.636;23.198;2023-06-10T06:38:31;9.32;;;5.80;;
37205;SDS011;23099;42.636;23.198;2023-06-10T06:40:57;11.40;;;6.18;;
37205;SDS011;23099;42.636;23.198;2023-06-10T06:43:27;14.50;;;6.15;;
37205;SDS011;23099;42.636;23.198;2023-06-10T06:45:56;10.43;;;5.80;;
37205;SDS011;23099;42.636;23.198;2023-06-10T06:48:23;10.95;;;6.10;;
37205;SDS011;23099;42.636;23.198;2023-06-10T06:50:49;11.18;;;6.45;;
37205;SDS011;23099;42.636;23.198;2023-06-10T06:53:16;10.88;;;5.72;;
37205;SDS011;23099;42.636;23.198;2023-06-10T06:55:43;10.70;;;5.25;;
37205;SDS011;23099;42.636;23.198;2023-06-10T06:58:09;9.25;;;5.30;;
37205;SDS011;23099;42.636;23.198;2023-06-10T07:00:36;10.35;;;5.35;;
37205;SDS011;23099;42.636;23.198;2023-06-10T07:03:04;9.43;;;5.13;;
37205;SDS011;23099;42.636;23.198;2023-06-10T07:05:31;9.88;;;4.63;;
37205;SDS011;23099;42.636;23.198;2023-06-10T07:07:58;8.20;;;4.75;;
37205;SDS011;23099;42.636;23.198;2023-06-10T07:10:24;7.93;;;4.30;;
37205;SDS011;23099;42.636;23.198;2023-06-10T07:12:52;7.55;;;4.15;;
37205;SDS011;23099;42.636;23.198;2023-06-10T07:15:19;7.93;;;4.05;;
37205;SDS011;23099;42.636;23.198;2023-06-10T07:17:46;7.32;;;3.78;;
37205;SDS011;23099;42.636;23.198;2023-06-10T07:20:14;8.02;;;3.90;;
37205;SDS011;23099;42.636;23.198;2023-06-10T07:22:40;7.80;;;3.83;;
37205;SDS011;23099;42.636;23.198;2023-06-10T07:25:08;9.63;;;3.90;;
37205;SDS011;23099;42.636;23.198;2023-06-10T07:27:34;8.02;;;3.63;;
37205;SDS011;23099;42.636;23.198;2023-06-10T07:30:02;8.53;;;4.40;;
37205;SDS011;23099;42.636;23.198;2023-06-10T07:32:29;7.78;;;3.33;;
37205;SDS011;23099;42.636;23.198;2023-06-10T07:34:56;6.82;;;3.72;;
37205;SDS011;23099;42.636;23.198;2023-06-10T07:37:24;8.63;;;3.70;;
37205;SDS011;23099;42.636;23.198;2023-06-10T07:39:51;7.25;;;3.58;;
37205;SDS011;23099;42.636;23.198;2023-06-10T07:42:18;10.90;;;3.75;;
37205;SDS011;23099;42.636;23.198;2023-06-10T07:44:44;7.53;;;3.60;;
37205;SDS011;23099;42.636;23.198;2023-06-10T07:47:11;7.22;;;3.50;;
37205;SDS011;23099;42.636;23.198;2023-06-10T07:49:38;7.22;;;2.40;;
37205;SDS011;23099;42.636;23.198;2023-06-10T07:52:06;5.30;;;2.47;;
37205;SDS011;23099;42.636;23.198;2023-06-10T07:54:35;8.23;;;2.38;;
37205;SDS011;23099;42.636;23.198;2023-06-10T07:57:01;5.88;;;2.17;;
37205;SDS011;23099;42.636;23.198;2023-06-10T07:59:28;6.80;;;2.67;;
37205;SDS011;23099;42.636;23.198;2023-06-10T08:01:55;7.05;;;2.80;;
37205;SDS011;23099;42.636;23.198;2023-06-10T08:04:21;4.97;;;2.38;;
37205;SDS011;23099;42.636;23.198;2023-06-10T08:06:48;4.28;;;2.22;;
37205;SDS011;23099;42.636;23.198;2023-06-10T08:09:15;6.70;;;2.22;;
37205;SDS011;23099;42.636;23.198;2023-06-10T08:11:44;8.10;;;2.88;;
37205;SDS011;23099;42.636;23.198;2023-06-10T08:14:12;5.68;;;2.40;;
37205;SDS011;23099;42.636;23.198;2023-06-10T08:16:39;4.85;;;2.38;;
37205;SDS011;23099;42.636;23.198;2023-06-10T08:19:06;6.22;;;2.33;;
37205;SDS011;23099;42.636;23.198;2023-06-10T08:21:34;5.82;;;2.78;;
37205;SDS011;23099;42.636;23.198;2023-06-10T08:24:01;5.85;;;1.90;;
37205;SDS011;23099;42.636;23.198;2023-06-10T08:26:28;5.10;;;2.00;;
37205;SDS011;23099;42.636;23.198;2023-06-10T08:28:56;6.07;;;2.38;;
37205;SDS011;23099;42.636;23.198;2023-06-10T08:31:23;9.82;;;2.20;;
37205;SDS011;23099;42.636;23.198;2023-06-10T08:33:50;4.43;;;2.30;;
37205;SDS011;23099;42.636;23.198;2023-06-10T08:36:16;9.65;;;2.30;;
37205;SDS011;23099;42.636;23.198;2023-06-10T08:38:43;5.18;;;2.10;;
37205;SDS011;23099;42.636;23.198;2023-06-10T08:41:10;6.63;;;2.20;;
37205;SDS011;23099;42.636;23.198;2023-06-10T08:43:42;4.40;;;2.13;;
37205;SDS011;23099;42.636;23.198;2023-06-10T08:46:13;7.95;;;2.53;;
37205;SDS011;23099;42.636;23.198;2023-06-10T08:48:41;4.57;;;1.90;;
37205;SDS011;23099;42.636;23.198;2023-06-10T08:51:10;4.70;;;2.03;;
37205;SDS011;23099;42.636;23.198;2023-06-10T08:53:38;8.20;;;1.63;;
37205;SDS011;23099;42.636;23.198;2023-06-10T08:56:12;8.27;;;2.42;;
37205;SDS011;23099;42.636;23.198;2023-06-10T08:58:40;6.80;;;2.30;;
37205;SDS011;23099;42.636;23.198;2023-06-10T09:01:08;4.57;;;1.75;;
37205;SDS011;23099;42.636;23.198;2023-06-10T09:03:37;6.57;;;2.00;;
37205;SDS011;23099;42.636;23.198;2023-06-10T09:08:31;4.93;;;1.90;;
37205;SDS011;23099;42.636;23.198;2023-06-10T09:10:59;3.92;;;1.75;;
37205;SDS011;23099;42.636;23.198;2023-06-10T09:13:26;4.88;;;2.13;;
37205;SDS011;23099;42.636;23.198;2023-06-10T09:15:53;6.53;;;2.60;;
37205;SDS011;23099;42.636;23.198;2023-06-10T09:18:21;4.88;;;1.95;;
37205;SDS011;23099;42.636;23.198;2023-06-10T09:20:49;8.32;;;2.03;;
37205;SDS011;23099;42.636;23.198;2023-06-10T09:23:16;5.90;;;1.80;;
37205;SDS011;23099;42.636;23.198;2023-06-10T09:25:43;3.80;;;1.70;;
37205;SDS011;23099;42.636;23.198;2023-06-10T09:28:13;4.68;;;1.77;;
37205;SDS011;23099;42.636;23.198;2023-06-10T09:30:40;5.97;;;2.15;;
37205;SDS011;23099;42.636;23.198;2023-06-10T09:33:09;6.25;;;2.35;;
37205;SDS011;23099;42.636;23.198;2023-06-10T09:35:37;7.07;;;2.20;;
37205;SDS011;23099;42.636;23.198;2023-06-10T09:38:13;7.55;;;2.45;;
37205;SDS011;23099;42.636;23.198;2023-06-10T09:40:48;6.57;;;2.38;;
37205;SDS011;23099;42.636;23.198;2023-06-10T09:43:15;7.13;;;2.83;;
37205;SDS011;23099;42.636;23.198;2023-06-10T09:45:42;5.35;;;2.80;;
37205;SDS011;23099;42.636;23.198;2023-06-10T09:48:09;5.27;;;2.60;;
37205;SDS011;23099;42.636;23.198;2023-06-10T09:50:41;7.43;;;2.55;;
37205;SDS011;23099;42.636;23.198;2023-06-10T09:53:09;5.63;;;2.40;;
37205;SDS011;23099;42.636;23.198;2023-06-10T09:55:38;5.78;;;2.38;;
37205;SDS011;23099;42.636;23.198;2023-06-10T09:58:06;5.90;;;2.42;;
37205;SDS011;23099;42.636;23.198;2023-06-10T10:00:33;4.70;;;2.20;;
37205;SDS011;23099;42.636;23.198;2023-06-10T10:03:00;8.53;;;2.60;;
37205;SDS011;23099;42.636;23.198;2023-06-10T10:05:27;5.90;;;2.92;;
37205;SDS011;23099;42.636;23.198;2023-06-10T10:07:54;7.13;;;2.70;;
37205;SDS011;23099;42.636;23.198;2023-06-10T10:10:21;6.45;;;2.88;;
37205;SDS011;23099;42.636;23.198;2023-06-10T10:12:50;5.75;;;1.80;;
37205;SDS011;23099;42.636;23.198;2023-06-10T10:15:20;6.15;;;2.00;;
37205;SDS011;23099;42.636;23.198;2023-06-10T10:17:51;6.13;;;2.15;;
37205;SDS011;23099;42.636;23.198;2023-06-10T10:20:23;4.57;;;1.50;;
37205;SDS011;23099;42.636;23.198;2023-06-10T10:22:53;4.25;;;1.80;;
37205;SDS011;23099;42.636;23.198;2023-06-10T10:25:23;6.93;;;2.47;;
37205;SDS011;23099;42.636;23.198;2023-06-10T10:27:57;7.13;;;2.33;;
37205;SDS011;23099;42.636;23.198;2023-06-10T10:30:28;6.72;;;2.60;;
37205;SDS011;23099;42.636;23.198;2023-06-10T10:32:57;6.20;;;2.35;;
37205;SDS011;23099;42.636;23.198;2023-06-10T10:35:26;7.80;;;2.80;;
37205;SDS011;23099;42.636;23.198;2023-06-10T10:37:53;5.85;;;2.20;;
37205;SDS011;23099;42.636;23.198;2023-06-10T10:40:21;7.53;;;2.45;;
37205;SDS011;23099;42.636;23.198;2023-06-10T10:42:48;6.40;;;1.90;;
37205;SDS011;23099;42.636;23.198;2023-06-10T10:45:17;6.32;;;2.75;;
37205;SDS011;23099;42.636;23.198;2023-06-10T10:47:45;5.03;;;2.50;;
37205;SDS011;23099;42.636;23.198;2023-06-10T10:50:13;4.50;;;2.60;;
37205;SDS011;23099;42.636;23.198;2023-06-10T10:52:51;10.15;;;3.03;;
37205;SDS011;23099;42.636;23.198;2023-06-10T10:55:19;6.80;;;3.10;;
37205;SDS011;23099;42.636;23.198;2023-06-10T10:57:53;6.80;;;3.50;;
37205;SDS011;23099;42.636;23.198;2023-06-10T11:00:25;6.75;;;2.75;;
37205;SDS011;23099;42.636;23.198;2023-06-10T11:02:54;5.25;;;2.83;;
37205;SDS011;23099;42.636;23.198;2023-06-10T11:05:31;6.50;;;3.08;;
37205;SDS011;23099;42.636;23.198;2023-06-10T11:08:06;6.35;;;2.35;;
37205;SDS011;23099;42.636;23.198;2023-06-10T11:10:34;6.03;;;2.30;;
37205;SDS011;23099;42.636;23.198;2023-06-10T11:13:05;8.20;;;2.67;;
37205;SDS011;23099;42.636;23.198;2023-06-10T11:15:37;8.40;;;2.70;;
37205;SDS011;23099;42.636;23.198;2023-06-10T11:18:09;5.25;;;2.33;;
37205;SDS011;23099;42.636;23.198;2023-06-10T11:20:43;5.35;;;2.20;;
37205;SDS011;23099;42.636;23.198;2023-06-10T11:23:10;6.95;;;2.38;;
37205;SDS011;23099;42.636;23.198;2023-06-10T11:25:50;5.53;;;1.73;;
37205;SDS011;23099;42.636;23.198;2023-06-10T11:28:17;5.28;;;2.15;;
37205;SDS011;23099;42.636;23.198;2023-06-10T11:30:45;6.78;;;2.13;;
37205;SDS011;23099;42.636;23.198;2023-06-10T11:33:14;6.88;;;2.70;;
37205;SDS011;23099;42.636;23.198;2023-06-10T11:35:41;4.63;;;1.80;;
37205;SDS011;23099;42.636;23.198;2023-06-10T11:38:09;7.25;;;2.30;;
37205;SDS011;23099;42.636;23.198;2023-06-10T11:40:36;5.87;;;1.77;;
37205;SDS011;23099;42.636;23.198;2023-06-10T11:43:03;5.00;;;1.63;;
37205;SDS011;23099;42.636;23.198;2023-06-10T11:45:30;5.20;;;2.40;;
37205;SDS011;23099;42.636;23.198;2023-06-10T11:47:58;4.75;;;1.90;;
37205;SDS011;23099;42.636;23.198;2023-06-10T11:50:29;6.45;;;2.13;;
37205;SDS011;23099;42.636;23.198;2023-06-10T11:52:56;5.03;;;2.03;;
37205;SDS011;23099;42.636;23.198;2023-06-10T11:55:23;9.23;;;2.20;;
37205;SDS011;23099;42.636;23.198;2023-06-10T11:57:51;5.05;;;2.33;;
37205;SDS011;23099;42.636;23.198;2023-06-10T12:00:22;5.15;;;2.00;;
37205;SDS011;23099;42.636;23.198;2023-06-10T12:02:54;8.68;;;2.60;;
37205;SDS011;23099;42.636;23.198;2023-06-10T12:05:24;5.40;;;1.98;;
37205;SDS011;23099;42.636;23.198;2023-06-10T12:10:39;7.47;;;2.20;;
37205;SDS011;23099;42.636;23.198;2023-06-10T12:13:07;4.18;;;1.73;;
37205;SDS011;23099;42.636;23.198;2023-06-10T12:15:34;5.47;;;2.10;;
37205;SDS011;23099;42.636;23.198;2023-06-10T12:18:01;6.70;;;2.47;;
37205;SDS011;23099;42.636;23.198;2023-06-10T12:20:29;6.40;;;2.40;;
37205;SDS011;23099;42.636;23.198;2023-06-10T12:22:58;5.40;;;2.40;;
37205;SDS011;23099;42.636;23.198;2023-06-10T12:25:26;5.47;;;2.50;;
37205;SDS011;23099;42.636;23.198;2023-06-10T12:30:23;5.18;;;2.50;;
37205;SDS011;23099;42.636;23.198;2023-06-10T12:32:51;6.72;;;2.70;;
37205;SDS011;23099;42.636;23.198;2023-06-10T12:35:19;9.55;;;2.80;;
37205;SDS011;23099;42.636;23.198;2023-06-10T12:37:55;7.45;;;2.70;;
37205;SDS011;23099;42.636;23.198;2023-06-10T12:40:28;7.22;;;2.47;;
37205;SDS011;23099;42.636;23.198;2023-06-10T12:42:56;4.72;;;2.63;;
37205;SDS011;23099;42.636;23.198;2023-06-10T12:45:26;5.33;;;2.50;;
37205;SDS011;23099;42.636;23.198;2023-06-10T12:48:03;5.43;;;2.67;;
37205;SDS011;23099;42.636;23.198;2023-06-10T12:50:31;6.70;;;2.77;;
37205;SDS011;23099;42.636;23.198;2023-06-10T12:53:00;6.53;;;2.90;;
37205;SDS011;23099;42.636;23.198;2023-06-10T12:55:27;5.82;;;2.65;;
37205;SDS011;23099;42.636;23.198;2023-06-10T12:57:54;5.75;;;2.17;;
37205;SDS011;23099;42.636;23.198;2023-06-10T13:00:22;7.05;;;3.03;;
37205;SDS011;23099;42.636;23.198;2023-06-10T13:02:51;8.18;;;2.85;;
37205;SDS011;23099;42.636;23.198;2023-06-10T13:05:18;5.88;;;2.40;;
37205;SDS011;23099;42.636;23.198;2023-06-10T13:07:45;8.90;;;2.60;;
37205;SDS011;23099;42.636;23.198;2023-06-10T13:10:15;6.53;;;2.67;;
37205;SDS011;23099;42.636;23.198;2023-06-10T13:12:43;6.35;;;2.33;;
37205;SDS011;23099;42.636;23.198;2023-06-10T13:15:11;5.55;;;2.63;;
37205;SDS011;23099;42.636;23.198;2023-06-10T13:20:06;8.80;;;2.47;;
37205;SDS011;23099;42.636;23.198;2023-06-10T13:22:34;6.90;;;2.50;;
37205;SDS011;23099;42.636;23.198;2023-06-10T13:25:01;6.13;;;2.90;;
37205;SDS011;23099;42.636;23.198;2023-06-10T13:27:30;6.90;;;2.70;;
37205;SDS011;23099;42.636;23.198;2023-06-10T13:29:57;5.70;;;2.22;;
37205;SDS011;23099;42.636;23.198;2023-06-10T13:32:24;7.75;;;2.38;;
37205;SDS011;23099;42.636;23.198;2023-06-10T13:34:51;6.18;;;2.03;;
37205;SDS011;23099;42.636;23.198;2023-06-10T13:37:18;10.40;;;2.53;;
37205;SDS011;23099;42.636;23.198;2023-06-10T13:39:45;4.72;;;2.00;;
37205;SDS011;23099;42.636;23.198;2023-06-10T13:42:13;6.22;;;2.35;;
37205;SDS011;23099;42.636;23.198;2023-06-10T13:44:41;6.78;;;2.17;;
37205;SDS011;23099;42.636;23.198;2023-06-10T13:47:08;7.35;;;2.40;;
37205;SDS011;23099;42.636;23.198;2023-06-10T13:49:35;5.65;;;2.20;;
37205;SDS011;23099;42.636;23.198;2023-06-10T13:52:02;5.25;;;2.40;;
37205;SDS011;23099;42.636;23.198;2023-06-10T13:54:29;4.93;;;2.40;;
37205;SDS011;23099;42.636;23.198;2023-06-10T13:56:56;7.13;;;2.53;;
37205;SDS011;23099;42.636;23.198;2023-06-10T13:59:23;5.95;;;2.17;;
37205;SDS011;23099;42.636;23.198;2023-06-10T14:01:51;7.03;;;2.53;;
37205;SDS011;23099;42.636;23.198;2023-06-10T14:04:17;5.80;;;2.50;;
37205;SDS011;23099;42.636;23.198;2023-06-10T14:06:44;9.20;;;2.78;;
37205;SDS011;23099;42.636;23.198;2023-06-10T14:09:12;6.47;;;2.85;;
37205;SDS011;23099;42.636;23.198;2023-06-10T14:14:06;8.80;;;3.20;;
37205;SDS011;23099;42.636;23.198;2023-06-10T14:16:33;7.20;;;2.83;;
37205;SDS011;23099;42.636;23.198;2023-06-10T14:19:01;9.68;;;3.08;;
37205;SDS011;23099;42.636;23.198;2023-06-10T14:21:27;7.78;;;3.65;;
37205;SDS011;23099;42.636;23.198;2023-06-10T14:23:54;7.85;;;3.55;;
37205;SDS011;23099;42.636;23.198;2023-06-10T14:26:21;5.85;;;2.90;;
37205;SDS011;23099;42.636;23.198;2023-06-10T14:28:47;8.82;;;3.42;;
37205;SDS011;23099;42.636;23.198;2023-06-10T14:31:14;7.18;;;3.42;;
37205;SDS011;23099;42.636;23.198;2023-06-10T14:33:41;7.25;;;3.50;;
37205;SDS011;23099;42.636;23.198;2023-06-10T14:36:10;6.47;;;3.47;;
37205;SDS011;23099;42.636;23.198;2023-06-10T14:38:37;9.00;;;3.85;;
37205;SDS011;23099;42.636;23.198;2023-06-10T14:41:04;6.07;;;3.13;;
37205;SDS011;23099;42.636;23.198;2023-06-10T14:43:31;8.10;;;3.30;;
37205;SDS011;23099;42.636;23.198;2023-06-10T14:45:57;6.35;;;3.20;;
37205;SDS011;23099;42.636;23.198;2023-06-10T14:48:24;7.57;;;3.38;;
37205;SDS011;23099;42.636;23.198;2023-06-10T14:50:51;6.03;;;3.55;;
37205;SDS011;23099;42.636;23.198;2023-06-10T14:53:21;8.20;;;3.45;;
37205;SDS011;23099;42.636;23.198;2023-06-10T14:55:48;9.05;;;3.63;;